Christina O — C6FN7 — position and weather

sailwx.info

Track history (hours):
 
Tides and Currents Weather Stations Pressure Air Temp Water Temp Dewpoint Dewpoint Depression Visibility Wind Speed Wind Dir Waves Ship Positions

Christina O

Operator: V Ships Leisure SAM

Last reported at 2015-Sep-01 19:10 UTC. Time now 2015-Sep-02 14:56 UTC.
Position N 59°34' E 022°59'.

Length 186 m; draft 6.1 m.

Type: Passenger vessel. MMSI: 308322000.

Date/timePositionNaut miles runAvg speedWind from/ knotsBaromVisibWave heightAir tempDewpointWater temp
2015-Sep-01 19:10N 59°34' E 022°59'1015.1
2015-Sep-01 18:31N 59°37' E 023°17'1515.1
2015-Sep-01 17:33N 59°42' E 023°45'1615.1
2015-Sep-01 16:31N 59°47' E 024°14'27 2.0
2015-Sep-01 03:22N 60°01' E 024°58'1314.9
2015-Sep-01 02:30N 59°56' E 025°22'1615.1
2015-Sep-01 01:25N 59°57' E 025°54'1315.3
2015-Sep-01 00:34N 59°60' E 026°20'1514.9
2015-Aug-31 23:33N 60°00' E 026°50'2114.6
2015-Aug-31 22:07N 60°07' E 027°30'3614.0
2015-Aug-31 19:33N 60°03' E 028°41'2914.2
2015-Aug-31 17:33N 60°00' E 029°37'1211.6
2015-Aug-31 16:33N 59°56' E 029°59'8 7.7
2015-Aug-31 15:33N 59°55' E 030°14'2 2.2
2015-Aug-31 14:32N 59°56' E 030°17'0 0.0
2015-Aug-31 13:32N 59°56' E 030°17'0 0.0
2015-Aug-31 12:32N 59°56' E 030°17'0 0.0
2015-Aug-31 11:32N 59°56' E 030°17'0 0.0
2015-Aug-31 10:32N 59°56' E 030°17'0 0.0
2015-Aug-31 09:29N 59°56' E 030°17'0 0.0
2015-Aug-31 08:32N 59°56' E 030°17'0 0.0
2015-Aug-31 07:32N 59°56' E 030°17'0 0.0
2015-Aug-31 06:32N 59°56' E 030°17'0 0.0
2015-Aug-31 05:32N 59°56' E 030°17'0 0.0
2015-Aug-31 04:32N 59°56' E 030°17'0 0.0
2015-Aug-31 03:32N 59°56' E 030°17'0 0.0
2015-Aug-31 02:32N 59°56' E 030°17'0 0.0
2015-Aug-31 01:32N 59°56' E 030°17'0 0.0
2015-Aug-31 00:32N 59°56' E 030°17'0 0.0
2015-Aug-30 23:32N 59°56' E 030°17'0 0.0
2015-Aug-30 22:32N 59°56' E 030°17'0 0.0
2015-Aug-30 21:32N 59°56' E 030°17'0 0.0
2015-Aug-30 20:32N 59°56' E 030°17'0 0.0
2015-Aug-30 19:32N 59°56' E 030°17'0 0.0
2015-Aug-30 18:32N 59°56' E 030°17'0 0.0
2015-Aug-30 17:32N 59°56' E 030°17'0 0.0
2015-Aug-30 16:32N 59°56' E 030°17'0 0.0
2015-Aug-30 15:32N 59°56' E 030°17'0 0.0
2015-Aug-30 14:32N 59°56' E 030°17'0 0.0
2015-Aug-30 13:32N 59°56' E 030°17'0 0.0
2015-Aug-30 12:32N 59°56' E 030°17'0 0.0
2015-Aug-30 11:32N 59°56' E 030°17'0 0.0
2015-Aug-30 10:32N 59°56' E 030°17'0 0.0
2015-Aug-30 09:32N 59°56' E 030°17'0 0.0
2015-Aug-30 08:32N 59°56' E 030°17'0 0.0
2015-Aug-30 07:32N 59°56' E 030°17'0 0.0
2015-Aug-30 06:32N 59°56' E 030°17'0 0.0
2015-Aug-30 05:32N 59°56' E 030°17'0 0.0
2015-Aug-30 04:32N 59°56' E 030°17'0 0.0
2015-Aug-30 03:32N 59°56' E 030°17'0 0.0
2015-Aug-30 02:32N 59°56' E 030°17'0 0.0
2015-Aug-30 01:32N 59°56' E 030°17'0 0.0
2015-Aug-30 00:32N 59°56' E 030°17'0 0.0
2015-Aug-29 23:29N 59°56' E 030°17'0 0.0
2015-Aug-29 22:31N 59°56' E 030°17'0 0.0
2015-Aug-29 21:33N 59°56' E 030°17'0 0.0
2015-Aug-29 20:32N 59°56' E 030°17'0 0.0
2015-Aug-29 19:32N 59°56' E 030°17'0 0.0
2015-Aug-29 18:32N 59°56' E 030°17'0 0.0
2015-Aug-29 17:32N 59°56' E 030°17'0 0.0
2015-Aug-29 16:32N 59°56' E 030°17'0 0.0
2015-Aug-29 15:32N 59°56' E 030°17'0 0.0
2015-Aug-29 14:32N 59°56' E 030°17'0 0.0
2015-Aug-29 13:29N 59°56' E 030°17'0 0.0
2015-Aug-29 12:32N 59°56' E 030°17'0 0.0
2015-Aug-29 11:32N 59°56' E 030°17'0 0.0
2015-Aug-29 10:32N 59°56' E 030°17'0 0.0
2015-Aug-29 09:32N 59°56' E 030°17'0 0.0
2015-Aug-29 08:32N 59°56' E 030°17'0 0.0
2015-Aug-29 07:32N 59°56' E 030°17'0 0.0
2015-Aug-29 06:32N 59°56' E 030°17'0 0.0
2015-Aug-29 05:32N 59°56' E 030°17'1 0.9
2015-Aug-29 04:33N 59°55' E 030°16'6 6.0
2015-Aug-29 03:33N 59°54' E 030°04'1211.6
2015-Aug-29 02:33N 59°59' E 029°43'7712.4
2015-Aug-28 20:21N 59°59' E 027°09'1113.5
2015-Aug-28 19:33N 59°59' E 026°48'69 9.7
2015-Aug-28 12:24N 59°27' E 024°46'0 0.0
2015-Aug-28 11:27N 59°27' E 024°46'0 0.0
2015-Aug-28 10:33N 59°27' E 024°46'0 0.0
2015-Aug-28 09:33N 59°27' E 024°46'32 7.9
2015-Aug-28 05:33N 59°27' E 023°44'6615.7
2015-Aug-28 01:21N 59°29' E 021°34'1315.8
2015-Aug-28 00:32N 59°33' E 021°10'8311.9
2015-Aug-27 17:32N 59°23' E 018°27'9 9.6
2015-Aug-27 16:33N 59°19' E 018°10'3 1.8
2015-Aug-27 15:12N 59°19' E 018°05'0 0.0
2015-Aug-27 14:33N 59°19' E 018°05'0 0.0
2015-Aug-27 13:30N 59°19' E 018°05'0 0.0
2015-Aug-27 12:33N 59°19' E 018°05'0 0.0
2015-Aug-27 11:30N 59°19' E 018°05'0 0.0
2015-Aug-27 10:33N 59°19' E 018°05'0 0.0
2015-Aug-27 09:33N 59°19' E 018°05'0 0.0
2015-Aug-27 08:33N 59°19' E 018°05'0 0.0
2015-Aug-27 07:30N 59°19' E 018°05'0 0.0
2015-Aug-27 06:33N 59°19' E 018°05'7 7.3
2015-Aug-27 05:34N 59°23' E 018°18'5 5.4
2015-Aug-27 04:33N 59°27' E 018°25'202 7.8
2015-Aug-26 02:33N 59°50' E 025°03'1616.1
2015-Aug-26 01:33N 59°53' E 025°34'1616.0
2015-Aug-26 00:33N 59°57' E 026°05'1615.7
2015-Aug-25 23:33N 60°01' E 026°35'1515.4
2015-Aug-25 22:33N 60°00' E 027°06'1615.8
2015-Aug-25 21:34N 60°08' E 027°33'1514.7
2015-Aug-25 20:33N 60°10' E 028°03'1515.7
2015-Aug-25 19:33N 60°03' E 028°31'3215.2
2015-Aug-25 17:28N 60°01' E 029°34'1111.7
2015-Aug-25 16:33N 59°57' E 029°54'10 9.7
2015-Aug-25 15:33N 59°54' E 030°13'3 3.1
2015-Aug-25 14:31N 59°56' E 030°17'0 0.0
2015-Aug-25 13:33N 59°56' E 030°17'0 0.0
2015-Aug-25 12:33N 59°56' E 030°17'0 0.0
2015-Aug-25 11:33N 59°56' E 030°17'0 0.0
2015-Aug-25 10:33N 59°56' E 030°17'0 0.0
2015-Aug-25 09:33N 59°56' E 030°17'0 0.0
2015-Aug-25 08:33N 59°56' E 030°17'0 0.0
2015-Aug-25 07:33N 59°56' E 030°17'0 0.0
2015-Aug-25 06:33N 59°56' E 030°17'0 0.0
2015-Aug-25 05:33N 59°56' E 030°17'0 0.0
2015-Aug-25 04:33N 59°56' E 030°17'0 0.0
2015-Aug-25 03:33N 59°56' E 030°17'0 0.0
2015-Aug-25 02:33N 59°56' E 030°17'0 0.0
2015-Aug-25 01:33N 59°56' E 030°17'0 0.0
2015-Aug-25 00:33N 59°56' E 030°17'0 0.0
2015-Aug-24 23:33N 59°56' E 030°17'0 0.0
2015-Aug-24 22:33N 59°56' E 030°17'0 0.0
2015-Aug-24 21:33N 59°56' E 030°17'0 0.0
2015-Aug-24 20:33N 59°56' E 030°17'0 0.0
2015-Aug-24 19:33N 59°56' E 030°17'0 0.0
2015-Aug-24 18:33N 59°56' E 030°17'0 0.0
2015-Aug-24 17:33N 59°56' E 030°17'0 0.0
2015-Aug-24 16:33N 59°56' E 030°17'0 0.0
2015-Aug-24 15:33N 59°56' E 030°17'0 0.0
2015-Aug-24 14:33N 59°56' E 030°17'0 0.0
2015-Aug-24 13:33N 59°56' E 030°17'0 0.0
2015-Aug-24 12:33N 59°56' E 030°17'0 0.0
2015-Aug-24 11:33N 59°56' E 030°17'0 0.0
2015-Aug-24 10:29N 59°56' E 030°17'0 0.0
2015-Aug-24 09:32N 59°56' E 030°17'0 0.0
2015-Aug-24 08:32N 59°56' E 030°17'0 0.0
2015-Aug-24 07:32N 59°56' E 030°17'0 0.0
2015-Aug-24 06:32N 59°56' E 030°17'0 0.0
2015-Aug-24 05:32N 59°56' E 030°17'0 0.0
2015-Aug-24 04:29N 59°56' E 030°17'0 0.0
2015-Aug-24 03:32N 59°56' E 030°17'0 0.0
2015-Aug-24 02:32N 59°56' E 030°17'0 0.0
2015-Aug-24 01:32N 59°56' E 030°17'0 0.0
2015-Aug-24 00:32N 59°56' E 030°17'0 0.0
2015-Aug-23 23:32N 59°56' E 030°17'0 0.0
2015-Aug-23 22:32N 59°56' E 030°17'0 0.0
2015-Aug-23 21:32N 59°56' E 030°17'0 0.0
2015-Aug-23 20:32N 59°56' E 030°17'0 0.0
2015-Aug-23 19:32N 59°56' E 030°17'0 0.0
2015-Aug-23 18:32N 59°56' E 030°17'0 0.0
2015-Aug-23 17:32N 59°56' E 030°17'0 0.0
2015-Aug-23 16:29N 59°56' E 030°17'0 0.0
2015-Aug-23 15:32N 59°56' E 030°17'0 0.0
2015-Aug-23 14:32N 59°56' E 030°17'0 0.0
2015-Aug-23 13:32N 59°56' E 030°17'0 0.0
2015-Aug-23 12:32N 59°56' E 030°17'0 0.0
2015-Aug-23 11:32N 59°56' E 030°17'0 0.0
2015-Aug-23 10:32N 59°56' E 030°17'0 0.0
2015-Aug-23 09:29N 59°56' E 030°17'0 0.0
2015-Aug-23 08:32N 59°56' E 030°17'0 0.0
2015-Aug-23 07:32N 59°56' E 030°17'0 0.0
2015-Aug-23 06:32N 59°56' E 030°17'0 0.0
2015-Aug-23 05:32N 59°56' E 030°17'0 0.3
2015-Aug-23 04:33N 59°56' E 030°17'5 5.3
2015-Aug-23 03:33N 59°54' E 030°07'1111.5
2015-Aug-23 02:33N 59°59' E 029°46'1211.6
2015-Aug-23 01:33N 60°01' E 029°24'1111.1
2015-Aug-23 00:33N 60°02' E 029°01'1111.3
2015-Aug-22 23:33N 60°02' E 028°39'3210.5
2015-Aug-22 20:33N 60°07' E 027°36'1211.5
2015-Aug-22 19:32N 60°02' E 027°16'  
Track history (hours):
 
Tides and Currents Weather Stations Pressure Air Temp Water Temp Dewpoint Dewpoint Depression Visibility Wind Speed Wind Dir Waves Ship Positions

Christina O

Operator: V Ships Leisure SAM

Last reported at 2015-Sep-01 19:10 UTC. Time now 2015-Sep-02 14:56 UTC.
Position N 59°34' E 022°59'.

Length 186 m; draft 6.1 m.

Type: Passenger vessel. MMSI: 308322000.

Date/timePositionNaut miles runAvg speedWind from/ knotsBaromVisibWave heightAir tempDewpointWater temp
2015-Sep-01 19:10N 59°34' E 022°59'1015.1
2015-Sep-01 18:31N 59°37' E 023°17'1515.1
2015-Sep-01 17:33N 59°42' E 023°45'1615.1
2015-Sep-01 16:31N 59°47' E 024°14'27 2.0
2015-Sep-01 03:22N 60°01' E 024°58'1314.9
2015-Sep-01 02:30N 59°56' E 025°22'1615.1
2015-Sep-01 01:25N 59°57' E 025°54'1315.3
2015-Sep-01 00:34N 59°60' E 026°20'1514.9
2015-Aug-31 23:33N 60°00' E 026°50'2114.6
2015-Aug-31 22:07N 60°07' E 027°30'3614.0
2015-Aug-31 19:33N 60°03' E 028°41'2914.2
2015-Aug-31 17:33N 60°00' E 029°37'1211.6
2015-Aug-31 16:33N 59°56' E 029°59'8 7.7
2015-Aug-31 15:33N 59°55' E 030°14'2 2.2
2015-Aug-31 14:32N 59°56' E 030°17'0 0.0
2015-Aug-31 13:32N 59°56' E 030°17'0 0.0
2015-Aug-31 12:32N 59°56' E 030°17'0 0.0
2015-Aug-31 11:32N 59°56' E 030°17'0 0.0
2015-Aug-31 10:32N 59°56' E 030°17'0 0.0
2015-Aug-31 09:29N 59°56' E 030°17'0 0.0
2015-Aug-31 08:32N 59°56' E 030°17'0 0.0
2015-Aug-31 07:32N 59°56' E 030°17'0 0.0
2015-Aug-31 06:32N 59°56' E 030°17'0 0.0
2015-Aug-31 05:32N 59°56' E 030°17'0 0.0
2015-Aug-31 04:32N 59°56' E 030°17'0 0.0
2015-Aug-31 03:32N 59°56' E 030°17'0 0.0
2015-Aug-31 02:32N 59°56' E 030°17'0 0.0
2015-Aug-31 01:32N 59°56' E 030°17'0 0.0
2015-Aug-31 00:32N 59°56' E 030°17'0 0.0
2015-Aug-30 23:32N 59°56' E 030°17'0 0.0
2015-Aug-30 22:32N 59°56' E 030°17'0 0.0
2015-Aug-30 21:32N 59°56' E 030°17'0 0.0
2015-Aug-30 20:32N 59°56' E 030°17'0 0.0
2015-Aug-30 19:32N 59°56' E 030°17'0 0.0
2015-Aug-30 18:32N 59°56' E 030°17'0 0.0
2015-Aug-30 17:32N 59°56' E 030°17'0 0.0
2015-Aug-30 16:32N 59°56' E 030°17'0 0.0
2015-Aug-30 15:32N 59°56' E 030°17'0 0.0
2015-Aug-30 14:32N 59°56' E 030°17'0 0.0
2015-Aug-30 13:32N 59°56' E 030°17'0 0.0
2015-Aug-30 12:32N 59°56' E 030°17'0 0.0
2015-Aug-30 11:32N 59°56' E 030°17'0 0.0
2015-Aug-30 10:32N 59°56' E 030°17'0 0.0
2015-Aug-30 09:32N 59°56' E 030°17'0 0.0
2015-Aug-30 08:32N 59°56' E 030°17'0 0.0
2015-Aug-30 07:32N 59°56' E 030°17'0 0.0
2015-Aug-30 06:32N 59°56' E 030°17'0 0.0
2015-Aug-30 05:32N 59°56' E 030°17'0 0.0
2015-Aug-30 04:32N 59°56' E 030°17'0 0.0
2015-Aug-30 03:32N 59°56' E 030°17'0 0.0
2015-Aug-30 02:32N 59°56' E 030°17'0 0.0
2015-Aug-30 01:32N 59°56' E 030°17'0 0.0
2015-Aug-30 00:32N 59°56' E 030°17'0 0.0
2015-Aug-29 23:29N 59°56' E 030°17'0 0.0
2015-Aug-29 22:31N 59°56' E 030°17'0 0.0
2015-Aug-29 21:33N 59°56' E 030°17'0 0.0
2015-Aug-29 20:32N 59°56' E 030°17'0 0.0
2015-Aug-29 19:32N 59°56' E 030°17'0 0.0
2015-Aug-29 18:32N 59°56' E 030°17'0 0.0
2015-Aug-29 17:32N 59°56' E 030°17'0 0.0
2015-Aug-29 16:32N 59°56' E 030°17'0 0.0
2015-Aug-29 15:32N 59°56' E 030°17'0 0.0
2015-Aug-29 14:32N 59°56' E 030°17'0 0.0
2015-Aug-29 13:29N 59°56' E 030°17'0 0.0
2015-Aug-29 12:32N 59°56' E 030°17'0 0.0
2015-Aug-29 11:32N 59°56' E 030°17'0 0.0
2015-Aug-29 10:32N 59°56' E 030°17'0 0.0
2015-Aug-29 09:32N 59°56' E 030°17'0 0.0
2015-Aug-29 08:32N 59°56' E 030°17'0 0.0
2015-Aug-29 07:32N 59°56' E 030°17'0 0.0
2015-Aug-29 06:32N 59°56' E 030°17'0 0.0
2015-Aug-29 05:32N 59°56' E 030°17'1 0.9
2015-Aug-29 04:33N 59°55' E 030°16'6 6.0
2015-Aug-29 03:33N 59°54' E 030°04'1211.6
2015-Aug-29 02:33N 59°59' E 029°43'7712.4
2015-Aug-28 20:21N 59°59' E 027°09'1113.5
2015-Aug-28 19:33N 59°59' E 026°48'69 9.7
2015-Aug-28 12:24N 59°27' E 024°46'0 0.0
2015-Aug-28 11:27N 59°27' E 024°46'0 0.0
2015-Aug-28 10:33N 59°27' E 024°46'0 0.0
2015-Aug-28 09:33N 59°27' E 024°46'32 7.9
2015-Aug-28 05:33N 59°27' E 023°44'6615.7
2015-Aug-28 01:21N 59°29' E 021°34'1315.8
2015-Aug-28 00:32N 59°33' E 021°10'8311.9
2015-Aug-27 17:32N 59°23' E 018°27'9 9.6
2015-Aug-27 16:33N 59°19' E 018°10'3 1.8
2015-Aug-27 15:12N 59°19' E 018°05'0 0.0
2015-Aug-27 14:33N 59°19' E 018°05'0 0.0
2015-Aug-27 13:30N 59°19' E 018°05'0 0.0
2015-Aug-27 12:33N 59°19' E 018°05'0 0.0
2015-Aug-27 11:30N 59°19' E 018°05'0 0.0
2015-Aug-27 10:33N 59°19' E 018°05'0 0.0
2015-Aug-27 09:33N 59°19' E 018°05'0 0.0
2015-Aug-27 08:33N 59°19' E 018°05'0 0.0
2015-Aug-27 07:30N 59°19' E 018°05'0 0.0
2015-Aug-27 06:33N 59°19' E 018°05'7 7.3
2015-Aug-27 05:34N 59°23' E 018°18'5 5.4
2015-Aug-27 04:33N 59°27' E 018°25'202 7.8
2015-Aug-26 02:33N 59°50' E 025°03'1616.1
2015-Aug-26 01:33N 59°53' E 025°34'1616.0
2015-Aug-26 00:33N 59°57' E 026°05'1615.7
2015-Aug-25 23:33N 60°01' E 026°35'1515.4
2015-Aug-25 22:33N 60°00' E 027°06'1615.8
2015-Aug-25 21:34N 60°08' E 027°33'1514.7
2015-Aug-25 20:33N 60°10' E 028°03'1515.7
2015-Aug-25 19:33N 60°03' E 028°31'3215.2
2015-Aug-25 17:28N 60°01' E 029°34'1111.7
2015-Aug-25 16:33N 59°57' E 029°54'10 9.7
2015-Aug-25 15:33N 59°54' E 030°13'3 3.1
2015-Aug-25 14:31N 59°56' E 030°17'0 0.0
2015-Aug-25 13:33N 59°56' E 030°17'0 0.0
2015-Aug-25 12:33N 59°56' E 030°17'0 0.0
2015-Aug-25 11:33N 59°56' E 030°17'0 0.0
2015-Aug-25 10:33N 59°56' E 030°17'0 0.0
2015-Aug-25 09:33N 59°56' E 030°17'0 0.0
2015-Aug-25 08:33N 59°56' E 030°17'0 0.0
2015-Aug-25 07:33N 59°56' E 030°17'0 0.0
2015-Aug-25 06:33N 59°56' E 030°17'0 0.0
2015-Aug-25 05:33N 59°56' E 030°17'0 0.0
2015-Aug-25 04:33N 59°56' E 030°17'0 0.0
2015-Aug-25 03:33N 59°56' E 030°17'0 0.0
2015-Aug-25 02:33N 59°56' E 030°17'0 0.0
2015-Aug-25 01:33N 59°56' E 030°17'0 0.0
2015-Aug-25 00:33N 59°56' E 030°17'0 0.0
2015-Aug-24 23:33N 59°56' E 030°17'0 0.0
2015-Aug-24 22:33N 59°56' E 030°17'0 0.0
2015-Aug-24 21:33N 59°56' E 030°17'0 0.0
2015-Aug-24 20:33N 59°56' E 030°17'0 0.0
2015-Aug-24 19:33N 59°56' E 030°17'0 0.0
2015-Aug-24 18:33N 59°56' E 030°17'0 0.0
2015-Aug-24 17:33N 59°56' E 030°17'0 0.0
2015-Aug-24 16:33N 59°56' E 030°17'0 0.0
2015-Aug-24 15:33N 59°56' E 030°17'0 0.0
2015-Aug-24 14:33N 59°56' E 030°17'0 0.0
2015-Aug-24 13:33N 59°56' E 030°17'0 0.0
2015-Aug-24 12:33N 59°56' E 030°17'0 0.0
2015-Aug-24 11:33N 59°56' E 030°17'0 0.0
2015-Aug-24 10:29N 59°56' E 030°17'0 0.0
2015-Aug-24 09:32N 59°56' E 030°17'0 0.0
2015-Aug-24 08:32N 59°56' E 030°17'0 0.0
2015-Aug-24 07:32N 59°56' E 030°17'0 0.0
2015-Aug-24 06:32N 59°56' E 030°17'0 0.0
2015-Aug-24 05:32N 59°56' E 030°17'0 0.0
2015-Aug-24 04:29N 59°56' E 030°17'0 0.0
2015-Aug-24 03:32N 59°56' E 030°17'0 0.0
2015-Aug-24 02:32N 59°56' E 030°17'0 0.0
2015-Aug-24 01:32N 59°56' E 030°17'0 0.0
2015-Aug-24 00:32N 59°56' E 030°17'0 0.0
2015-Aug-23 23:32N 59°56' E 030°17'0 0.0
2015-Aug-23 22:32N 59°56' E 030°17'0 0.0
2015-Aug-23 21:32N 59°56' E 030°17'0 0.0
2015-Aug-23 20:32N 59°56' E 030°17'0 0.0
2015-Aug-23 19:32N 59°56' E 030°17'0 0.0
2015-Aug-23 18:32N 59°56' E 030°17'0 0.0
2015-Aug-23 17:32N 59°56' E 030°17'0 0.0
2015-Aug-23 16:29N 59°56' E 030°17'0 0.0
2015-Aug-23 15:32N 59°56' E 030°17'0 0.0
2015-Aug-23 14:32N 59°56' E 030°17'0 0.0
2015-Aug-23 13:32N 59°56' E 030°17'0 0.0
2015-Aug-23 12:32N 59°56' E 030°17'0 0.0
2015-Aug-23 11:32N 59°56' E 030°17'0 0.0
2015-Aug-23 10:32N 59°56' E 030°17'0 0.0
2015-Aug-23 09:29N 59°56' E 030°17'0 0.0
2015-Aug-23 08:32N 59°56' E 030°17'0 0.0
2015-Aug-23 07:32N 59°56' E 030°17'0 0.0
2015-Aug-23 06:32N 59°56' E 030°17'0 0.0
2015-Aug-23 05:32N 59°56' E 030°17'0 0.3
2015-Aug-23 04:33N 59°56' E 030°17'5 5.3
2015-Aug-23 03:33N 59°54' E 030°07'1111.5
2015-Aug-23 02:33N 59°59' E 029°46'1211.6
2015-Aug-23 01:33N 60°01' E 029°24'1111.1
2015-Aug-23 00:33N 60°02' E 029°01'1111.3
2015-Aug-22 23:33N 60°02' E 028°39'3210.5
2015-Aug-22 20:33N 60°07' E 027°36'1211.5
2015-Aug-22 19:32N 60°02' E 027°16'  

Dump ship's entire track history